sensor_id;sensor_type;location;lat;lon;timestamp;P1;durP1;ratioP1;P2;durP2;ratioP2
44270;SDS011;29963;44.594;11.368;2024-01-06T07:19:21;12.27;;;11.00;;
44270;SDS011;29963;44.594;11.368;2024-01-06T07:21:46;12.05;;;10.80;;
44270;SDS011;29963;44.594;11.368;2024-01-06T07:24:12;11.52;;;10.43;;
44270;SDS011;29963;44.594;11.368;2024-01-06T07:26:39;11.27;;;10.23;;
44270;SDS011;29963;44.594;11.368;2024-01-06T07:29:04;11.55;;;10.27;;
44270;SDS011;29963;44.594;11.368;2024-01-06T07:31:30;11.02;;;10.10;;
44270;SDS011;29963;44.594;11.368;2024-01-06T07:33:55;12.98;;;11.80;;
44270;SDS011;29963;44.594;11.368;2024-01-06T07:36:22;14.65;;;12.43;;
44270;SDS011;29963;44.594;11.368;2024-01-06T07:38:47;13.30;;;12.00;;
44270;SDS011;29963;44.594;11.368;2024-01-06T07:41:13;13.20;;;12.00;;
44270;SDS011;29963;44.594;11.368;2024-01-06T07:43:39;13.10;;;11.70;;
44270;SDS011;29963;44.594;11.368;2024-01-06T07:46:04;14.05;;;12.68;;
44270;SDS011;29963;44.594;11.368;2024-01-06T07:48:32;13.50;;;12.27;;
44270;SDS011;29963;44.594;11.368;2024-01-06T07:50:57;14.77;;;13.25;;
44270;SDS011;29963;44.594;11.368;2024-01-06T07:53:23;14.50;;;13.10;;
44270;SDS011;29963;44.594;11.368;2024-01-06T07:55:48;15.40;;;13.85;;
44270;SDS011;29963;44.594;11.368;2024-01-06T07:58:14;13.30;;;12.10;;
44270;SDS011;29963;44.594;11.368;2024-01-06T08:00:40;15.63;;;14.02;;
44270;SDS011;29963;44.594;11.368;2024-01-06T08:03:06;14.82;;;13.40;;
44270;SDS011;29963;44.594;11.368;2024-01-06T08:05:32;14.95;;;13.52;;
44270;SDS011;29963;44.594;11.368;2024-01-06T08:07:58;14.35;;;12.88;;
44270;SDS011;29963;44.594;11.368;2024-01-06T08:10:23;13.25;;;12.05;;
44270;SDS011;29963;44.594;11.368;2024-01-06T08:12:49;14.45;;;12.10;;
44270;SDS011;29963;44.594;11.368;2024-01-06T08:15:14;14.07;;;12.65;;
44270;SDS011;29963;44.594;11.368;2024-01-06T08:17:40;14.70;;;13.02;;
44270;SDS011;29963;44.594;11.368;2024-01-06T08:20:09;16.13;;;14.63;;
44270;SDS011;29963;44.594;11.368;2024-01-06T08:22:35;14.65;;;13.30;;
44270;SDS011;29963;44.594;11.368;2024-01-06T08:25:00;14.43;;;12.93;;
44270;SDS011;29963;44.594;11.368;2024-01-06T08:27:26;15.25;;;13.75;;
44270;SDS011;29963;44.594;11.368;2024-01-06T08:29:52;14.65;;;13.30;;
44270;SDS011;29963;44.594;11.368;2024-01-06T08:32:17;17.88;;;14.68;;
44270;SDS011;29963;44.594;11.368;2024-01-06T08:34:43;14.90;;;13.05;;
44270;SDS011;29963;44.594;11.368;2024-01-06T08:37:09;13.55;;;12.15;;
44270;SDS011;29963;44.594;11.368;2024-01-06T08:39:34;15.25;;;13.75;;
44270;SDS011;29963;44.594;11.368;2024-01-06T08:42:00;14.93;;;13.52;;
44270;SDS011;29963;44.594;11.368;2024-01-06T08:44:26;14.73;;;13.27;;
44270;SDS011;29963;44.594;11.368;2024-01-06T08:46:51;14.20;;;12.88;;
44270;SDS011;29963;44.594;11.368;2024-01-06T08:49:17;14.95;;;13.55;;
44270;SDS011;29963;44.594;11.368;2024-01-06T08:51:43;13.77;;;12.15;;
44270;SDS011;29963;44.594;11.368;2024-01-06T08:54:08;13.85;;;12.48;;
44270;SDS011;29963;44.594;11.368;2024-01-06T08:56:34;14.00;;;12.60;;
44270;SDS011;29963;44.594;11.368;2024-01-06T08:59:00;14.88;;;13.45;;
44270;SDS011;29963;44.594;11.368;2024-01-06T09:01:26;12.60;;;11.38;;
44270;SDS011;29963;44.594;11.368;2024-01-06T09:03:51;13.90;;;12.50;;
44270;SDS011;29963;44.594;11.368;2024-01-06T09:06:17;14.90;;;13.48;;
44270;SDS011;29963;44.594;11.368;2024-01-06T09:08:43;16.27;;;14.68;;
44270;SDS011;29963;44.594;11.368;2024-01-06T09:11:08;16.95;;;15.25;;
44270;SDS011;29963;44.594;11.368;2024-01-06T09:13:37;16.60;;;14.80;;
44270;SDS011;29963;44.594;11.368;2024-01-06T09:16:02;15.32;;;13.82;;
44270;SDS011;29963;44.594;11.368;2024-01-06T09:18:28;16.17;;;14.48;;
44270;SDS011;29963;44.594;11.368;2024-01-06T09:20:54;16.17;;;14.55;;
44270;SDS011;29963;44.594;11.368;2024-01-06T09:23:22;15.13;;;13.63;;
44270;SDS011;29963;44.594;11.368;2024-01-06T09:25:48;14.90;;;13.40;;
44270;SDS011;29963;44.594;11.368;2024-01-06T09:28:17;15.18;;;13.68;;
44270;SDS011;29963;44.594;11.368;2024-01-06T09:30:43;15.55;;;13.98;;
44270;SDS011;29963;44.594;11.368;2024-01-06T09:33:09;15.80;;;13.98;;
44270;SDS011;29963;44.594;11.368;2024-01-06T09:35:35;15.25;;;13.85;;
44270;SDS011;29963;44.594;11.368;2024-01-06T09:38:00;15.38;;;13.77;;
44270;SDS011;29963;44.594;11.368;2024-01-06T09:40:26;16.10;;;14.43;;
44270;SDS011;29963;44.594;11.368;2024-01-06T09:42:53;15.75;;;14.15;;
44270;SDS011;29963;44.594;11.368;2024-01-06T09:45:19;17.15;;;15.20;;
44270;SDS011;29963;44.594;11.368;2024-01-06T09:47:48;20.50;;;16.60;;
44270;SDS011;29963;44.594;11.368;2024-01-06T09:50:15;15.75;;;13.93;;
44270;SDS011;29963;44.594;11.368;2024-01-06T09:52:45;17.17;;;15.40;;
44270;SDS011;29963;44.594;11.368;2024-01-06T09:55:18;21.60;;;17.25;;
44270;SDS011;29963;44.594;11.368;2024-01-06T09:57:49;18.67;;;15.57;;
44270;SDS011;29963;44.594;11.368;2024-01-06T10:00:15;17.83;;;15.15;;
44270;SDS011;29963;44.594;11.368;2024-01-06T10:02:42;16.95;;;15.30;;
44270;SDS011;29963;44.594;11.368;2024-01-06T10:05:08;14.93;;;13.32;;
44270;SDS011;29963;44.594;11.368;2024-01-06T10:07:35;15.35;;;13.85;;
44270;SDS011;29963;44.594;11.368;2024-01-06T10:10:00;16.10;;;14.02;;
44270;SDS011;29963;44.594;11.368;2024-01-06T10:12:26;14.93;;;12.85;;
44270;SDS011;29963;44.594;11.368;2024-01-06T10:14:53;14.55;;;13.05;;
44270;SDS011;29963;44.594;11.368;2024-01-06T10:17:19;13.95;;;12.07;;
44270;SDS011;29963;44.594;11.368;2024-01-06T10:19:45;13.05;;;11.65;;
44270;SDS011;29963;44.594;11.368;2024-01-06T10:22:12;12.55;;;11.30;;
44270;SDS011;29963;44.594;11.368;2024-01-06T10:24:38;12.85;;;11.55;;
44270;SDS011;29963;44.594;11.368;2024-01-06T10:27:03;11.80;;;10.70;;
44270;SDS011;29963;44.594;11.368;2024-01-06T10:29:29;11.75;;;10.65;;
44270;SDS011;29963;44.594;11.368;2024-01-06T10:31:55;11.88;;;10.75;;
44270;SDS011;29963;44.594;11.368;2024-01-06T10:34:21;11.40;;;10.30;;
44270;SDS011;29963;44.594;11.368;2024-01-06T10:36:51;13.50;;;12.18;;
44270;SDS011;29963;44.594;11.368;2024-01-06T10:39:17;12.88;;;11.57;;
44270;SDS011;29963;44.594;11.368;2024-01-06T10:41:43;10.73;;;9.73;;
44270;SDS011;29963;44.594;11.368;2024-01-06T10:44:10;11.38;;;10.27;;
44270;SDS011;29963;44.594;11.368;2024-01-06T10:46:36;11.45;;;10.40;;
44270;SDS011;29963;44.594;11.368;2024-01-06T10:49:04;11.43;;;10.32;;
44270;SDS011;29963;44.594;11.368;2024-01-06T10:51:33;11.57;;;10.52;;
44270;SDS011;29963;44.594;11.368;2024-01-06T10:54:00;12.18;;;10.93;;
44270;SDS011;29963;44.594;11.368;2024-01-06T10:56:27;11.38;;;10.27;;
44270;SDS011;29963;44.594;11.368;2024-01-06T10:58:54;11.68;;;10.48;;
44270;SDS011;29963;44.594;11.368;2024-01-06T11:01:22;11.68;;;10.48;;
44270;SDS011;29963;44.594;11.368;2024-01-06T11:03:52;10.40;;;9.50;;
44270;SDS011;29963;44.594;11.368;2024-01-06T11:06:20;10.10;;;9.10;;
44270;SDS011;29963;44.594;11.368;2024-01-06T11:11:29;12.20;;;9.25;;
44270;SDS011;29963;44.594;11.368;2024-01-06T11:16:42;10.30;;;8.75;;
44270;SDS011;29963;44.594;11.368;2024-01-06T11:22:20;9.60;;;8.65;;
44270;SDS011;29963;44.594;11.368;2024-01-06T11:25:05;11.32;;;8.75;;
44270;SDS011;29963;44.594;11.368;2024-01-06T11:27:37;10.02;;;9.02;;
44270;SDS011;29963;44.594;11.368;2024-01-06T11:30:03;7.93;;;7.22;;
44270;SDS011;29963;44.594;11.368;2024-01-06T11:32:33;9.18;;;8.27;;
44270;SDS011;29963;44.594;11.368;2024-01-06T11:35:08;9.35;;;8.55;;
44270;SDS011;29963;44.594;11.368;2024-01-06T11:37:50;9.18;;;8.27;;
44270;SDS011;29963;44.594;11.368;2024-01-06T11:42:46;8.95;;;8.15;;
44270;SDS011;29963;44.594;11.368;2024-01-06T11:45:27;9.75;;;8.85;;
44270;SDS011;29963;44.594;11.368;2024-01-06T11:47:54;9.00;;;8.18;;
44270;SDS011;29963;44.594;11.368;2024-01-06T11:50:24;10.05;;;9.02;;
44270;SDS011;29963;44.594;11.368;2024-01-06T11:52:51;9.52;;;8.63;;
44270;SDS011;29963;44.594;11.368;2024-01-06T11:55:17;8.85;;;8.02;;
44270;SDS011;29963;44.594;11.368;2024-01-06T11:57:44;10.05;;;8.50;;
44270;SDS011;29963;44.594;11.368;2024-01-06T12:00:10;8.73;;;7.93;;
44270;SDS011;29963;44.594;11.368;2024-01-06T12:02:38;8.27;;;7.53;;
44270;SDS011;29963;44.594;11.368;2024-01-06T12:05:04;8.82;;;8.02;;
44270;SDS011;29963;44.594;11.368;2024-01-06T12:07:30;8.93;;;8.05;;
44270;SDS011;29963;44.594;11.368;2024-01-06T12:10:02;8.23;;;7.53;;
44270;SDS011;29963;44.594;11.368;2024-01-06T12:12:28;8.43;;;7.03;;
44270;SDS011;29963;44.594;11.368;2024-01-06T12:14:57;7.43;;;6.72;;
44270;SDS011;29963;44.594;11.368;2024-01-06T12:17:23;9.77;;;8.13;;
44270;SDS011;29963;44.594;11.368;2024-01-06T12:19:54;10.02;;;8.90;;
44270;SDS011;29963;44.594;11.368;2024-01-06T12:22:20;9.43;;;8.45;;
44270;SDS011;29963;44.594;11.368;2024-01-06T12:24:49;12.02;;;9.77;;
44270;SDS011;29963;44.594;11.368;2024-01-06T12:27:16;11.23;;;9.80;;
44270;SDS011;29963;44.594;11.368;2024-01-06T12:29:43;10.70;;;9.50;;
44270;SDS011;29963;44.594;11.368;2024-01-06T12:32:09;9.75;;;8.75;;
44270;SDS011;29963;44.594;11.368;2024-01-06T12:34:35;10.85;;;9.75;;
44270;SDS011;29963;44.594;11.368;2024-01-06T12:37:01;9.98;;;8.98;;
44270;SDS011;29963;44.594;11.368;2024-01-06T12:39:30;11.70;;;10.57;;
44270;SDS011;29963;44.594;11.368;2024-01-06T12:41:56;11.50;;;10.35;;
44270;SDS011;29963;44.594;11.368;2024-01-06T12:44:22;11.40;;;9.77;;
44270;SDS011;29963;44.594;11.368;2024-01-06T12:46:50;14.38;;;10.80;;
44270;SDS011;29963;44.594;11.368;2024-01-06T12:49:16;11.30;;;10.10;;
44270;SDS011;29963;44.594;11.368;2024-01-06T12:51:42;12.18;;;10.95;;
44270;SDS011;29963;44.594;11.368;2024-01-06T12:54:07;12.10;;;10.10;;
44270;SDS011;29963;44.594;11.368;2024-01-06T12:56:33;11.05;;;9.68;;
44270;SDS011;29963;44.594;11.368;2024-01-06T12:58:59;12.35;;;10.20;;
44270;SDS011;29963;44.594;11.368;2024-01-06T13:01:27;11.82;;;9.75;;
44270;SDS011;29963;44.594;11.368;2024-01-06T13:03:53;12.15;;;10.70;;
44270;SDS011;29963;44.594;11.368;2024-01-06T13:06:19;12.40;;;9.93;;
44270;SDS011;29963;44.594;11.368;2024-01-06T13:08:45;12.25;;;10.15;;
44270;SDS011;29963;44.594;11.368;2024-01-06T13:11:10;10.32;;;9.05;;
44270;SDS011;29963;44.594;11.368;2024-01-06T13:13:36;10.60;;;9.60;;
44270;SDS011;29963;44.594;11.368;2024-01-06T13:16:02;12.00;;;10.13;;
44270;SDS011;29963;44.594;11.368;2024-01-06T13:18:30;10.88;;;9.82;;
44270;SDS011;29963;44.594;11.368;2024-01-06T13:20:55;13.32;;;9.93;;
44270;SDS011;29963;44.594;11.368;2024-01-06T13:23:21;12.38;;;10.70;;
44270;SDS011;29963;44.594;11.368;2024-01-06T13:25:47;11.35;;;10.13;;
44270;SDS011;29963;44.594;11.368;2024-01-06T13:28:13;14.13;;;11.75;;
44270;SDS011;29963;44.594;11.368;2024-01-06T13:30:39;12.38;;;11.02;;
44270;SDS011;29963;44.594;11.368;2024-01-06T13:33:06;14.38;;;11.52;;
44270;SDS011;29963;44.594;11.368;2024-01-06T13:35:32;11.10;;;10.07;;
44270;SDS011;29963;44.594;11.368;2024-01-06T13:37:58;12.45;;;11.15;;
44270;SDS011;29963;44.594;11.368;2024-01-06T13:40:24;12.30;;;11.05;;
44270;SDS011;29963;44.594;11.368;2024-01-06T13:42:50;11.38;;;10.27;;
44270;SDS011;29963;44.594;11.368;2024-01-06T13:45:17;10.88;;;9.77;;
44270;SDS011;29963;44.594;11.368;2024-01-06T13:47:43;12.05;;;10.85;;
44270;SDS011;29963;44.594;11.368;2024-01-06T13:50:13;12.45;;;11.13;;
44270;SDS011;29963;44.594;11.368;2024-01-06T13:52:40;12.30;;;11.02;;
44270;SDS011;29963;44.594;11.368;2024-01-06T13:55:06;14.25;;;11.02;;
44270;SDS011;29963;44.594;11.368;2024-01-06T13:57:33;11.80;;;10.50;;
44270;SDS011;29963;44.594;11.368;2024-01-06T14:00:00;13.30;;;11.82;;
44270;SDS011;29963;44.594;11.368;2024-01-06T14:02:25;13.63;;;12.23;;
44270;SDS011;29963;44.594;11.368;2024-01-06T14:04:52;14.85;;;13.25;;
44270;SDS011;29963;44.594;11.368;2024-01-06T14:07:18;15.43;;;13.27;;
44270;SDS011;29963;44.594;11.368;2024-01-06T14:09:44;14.52;;;12.07;;
44270;SDS011;29963;44.594;11.368;2024-01-06T14:12:10;13.65;;;12.27;;
44270;SDS011;29963;44.594;11.368;2024-01-06T14:14:36;14.02;;;12.15;;
44270;SDS011;29963;44.594;11.368;2024-01-06T14:17:02;11.98;;;10.10;;
44270;SDS011;29963;44.594;11.368;2024-01-06T14:19:28;15.20;;;10.65;;
44270;SDS011;29963;44.594;11.368;2024-01-06T14:21:53;11.43;;;10.38;;
44270;SDS011;29963;44.594;11.368;2024-01-06T14:24:19;11.98;;;10.88;;
44270;SDS011;29963;44.594;11.368;2024-01-06T14:26:52;14.32;;;11.00;;
44270;SDS011;29963;44.594;11.368;2024-01-06T14:29:18;11.98;;;10.85;;
44270;SDS011;29963;44.594;11.368;2024-01-06T14:31:44;11.98;;;10.77;;
44270;SDS011;29963;44.594;11.368;2024-01-06T14:34:10;11.10;;;10.07;;
44270;SDS011;29963;44.594;11.368;2024-01-06T14:36:36;10.40;;;8.93;;
44270;SDS011;29963;44.594;11.368;2024-01-06T14:39:01;11.48;;;10.27;;
44270;SDS011;29963;44.594;11.368;2024-01-06T14:41:29;11.00;;;9.88;;
44270;SDS011;29963;44.594;11.368;2024-01-06T14:43:54;11.57;;;10.45;;
44270;SDS011;29963;44.594;11.368;2024-01-06T14:46:20;11.07;;;9.80;;
44270;SDS011;29963;44.594;11.368;2024-01-06T14:48:46;12.73;;;11.45;;
44270;SDS011;29963;44.594;11.368;2024-01-06T14:51:11;10.77;;;9.68;;
44270;SDS011;29963;44.594;11.368;2024-01-06T14:53:37;12.35;;;10.98;;
44270;SDS011;29963;44.594;11.368;2024-01-06T14:56:02;10.88;;;9.77;;
44270;SDS011;29963;44.594;11.368;2024-01-06T14:58:28;11.60;;;10.50;;
44270;SDS011;29963;44.594;11.368;2024-01-06T15:00:54;12.35;;;10.70;;
44270;SDS011;29963;44.594;11.368;2024-01-06T15:03:20;12.15;;;10.52;;
44270;SDS011;29963;44.594;11.368;2024-01-06T15:05:46;12.05;;;10.85;;
44270;SDS011;29963;44.594;11.368;2024-01-06T15:08:12;12.57;;;11.25;;
44270;SDS011;29963;44.594;11.368;2024-01-06T15:10:38;12.38;;;11.13;;
44270;SDS011;29963;44.594;11.368;2024-01-06T15:13:04;12.23;;;11.02;;
44270;SDS011;29963;44.594;11.368;2024-01-06T15:15:29;12.05;;;10.55;;
44270;SDS011;29963;44.594;11.368;2024-01-06T15:17:55;11.00;;;9.95;;
44270;SDS011;29963;44.594;11.368;2024-01-06T15:20:20;12.73;;;11.43;;
44270;SDS011;29963;44.594;11.368;2024-01-06T15:22:48;11.95;;;10.70;;
44270;SDS011;29963;44.594;11.368;2024-01-06T15:25:13;12.68;;;11.38;;
44270;SDS011;29963;44.594;11.368;2024-01-06T15:27:39;11.55;;;10.45;;
44270;SDS011;29963;44.594;11.368;2024-01-06T15:30:05;12.77;;;11.48;;
44270;SDS011;29963;44.594;11.368;2024-01-06T15:32:34;13.05;;;11.60;;
44270;SDS011;29963;44.594;11.368;2024-01-06T15:35:01;12.50;;;11.07;;
44270;SDS011;29963;44.594;11.368;2024-01-06T15:37:27;12.82;;;11.27;;
44270;SDS011;29963;44.594;11.368;2024-01-06T15:39:52;13.13;;;11.82;;
44270;SDS011;29963;44.594;11.368;2024-01-06T15:42:18;11.32;;;10.30;;
44270;SDS011;29963;44.594;11.368;2024-01-06T15:44:44;10.90;;;9.85;;
44270;SDS011;29963;44.594;11.368;2024-01-06T15:47:09;14.75;;;13.25;;
44270;SDS011;29963;44.594;11.368;2024-01-06T15:49:35;12.55;;;11.25;;
44270;SDS011;29963;44.594;11.368;2024-01-06T15:52:01;10.88;;;9.77;;
44270;SDS011;29963;44.594;11.368;2024-01-06T15:54:28;11.48;;;10.40;;
44270;SDS011;29963;44.594;11.368;2024-01-06T15:56:54;10.45;;;9.45;;
44270;SDS011;29963;44.594;11.368;2024-01-06T15:59:20;11.10;;;10.02;;
44270;SDS011;29963;44.594;11.368;2024-01-06T16:01:45;10.98;;;9.93;;
44270;SDS011;29963;44.594;11.368;2024-01-06T16:04:11;10.70;;;9.70;;
44270;SDS011;29963;44.594;11.368;2024-01-06T16:06:37;10.25;;;9.35;;
44270;SDS011;29963;44.594;11.368;2024-01-06T16:09:02;11.85;;;10.48;;
44270;SDS011;29963;44.594;11.368;2024-01-06T16:11:30;10.23;;;9.30;;
44270;SDS011;29963;44.594;11.368;2024-01-06T16:13:56;10.70;;;9.60;;
44270;SDS011;29963;44.594;11.368;2024-01-06T16:16:22;10.63;;;9.68;;
44270;SDS011;29963;44.594;11.368;2024-01-06T16:18:53;10.02;;;9.13;;
44270;SDS011;29963;44.594;11.368;2024-01-06T16:21:22;10.38;;;9.38;;
44270;SDS011;29963;44.594;11.368;2024-01-06T16:23:51;10.85;;;9.95;;
44270;SDS011;29963;44.594;11.368;2024-01-06T16:26:17;10.43;;;9.52;;
44270;SDS011;29963;44.594;11.368;2024-01-06T16:28:46;10.93;;;9.82;;
44270;SDS011;29963;44.594;11.368;2024-01-06T16:31:11;11.98;;;10.77;;
44270;SDS011;29963;44.594;11.368;2024-01-06T16:33:37;12.25;;;10.88;;
44270;SDS011;29963;44.594;11.368;2024-01-06T16:36:03;12.25;;;11.00;;
44270;SDS011;29963;44.594;11.368;2024-01-06T16:38:30;12.50;;;11.40;;
44270;SDS011;29963;44.594;11.368;2024-01-06T16:41:00;12.02;;;10.88;;
44270;SDS011;29963;44.594;11.368;2024-01-06T16:43:27;13.68;;;12.00;;
44270;SDS011;29963;44.594;11.368;2024-01-06T16:46:06;12.70;;;11.50;;
44270;SDS011;29963;44.594;11.368;2024-01-06T16:48:33;13.88;;;12.57;;
44270;SDS011;29963;44.594;11.368;2024-01-06T16:50:59;13.07;;;11.88;;
44270;SDS011;29963;44.594;11.368;2024-01-06T16:53:25;13.98;;;12.65;;
44270;SDS011;29963;44.594;11.368;2024-01-06T16:55:50;14.80;;;13.40;;
44270;SDS011;29963;44.594;11.368;2024-01-06T16:58:16;14.32;;;12.93;;
44270;SDS011;29963;44.594;11.368;2024-01-06T17:00:44;13.60;;;12.25;;
44270;SDS011;29963;44.594;11.368;2024-01-06T17:03:10;12.95;;;11.75;;
44270;SDS011;29963;44.594;11.368;2024-01-06T17:05:35;13.93;;;12.63;;
44270;SDS011;29963;44.594;11.368;2024-01-06T17:08:01;15.30;;;12.75;;
44270;SDS011;29963;44.594;11.368;2024-01-06T17:10:28;14.40;;;13.00;;
44270;SDS011;29963;44.594;11.368;2024-01-06T17:12:54;15.30;;;13.70;;
44270;SDS011;29963;44.594;11.368;2024-01-06T17:15:19;16.52;;;14.82;;
44270;SDS011;29963;44.594;11.368;2024-01-06T17:17:49;16.35;;;14.80;;
44270;SDS011;29963;44.594;11.368;2024-01-06T17:20:16;17.95;;;14.63;;
44270;SDS011;29963;44.594;11.368;2024-01-06T17:22:41;15.93;;;14.32;;
44270;SDS011;29963;44.594;11.368;2024-01-06T17:25:08;16.60;;;15.00;;
44270;SDS011;29963;44.594;11.368;2024-01-06T17:27:36;16.10;;;14.50;;
44270;SDS011;29963;44.594;11.368;2024-01-06T17:30:02;16.33;;;14.73;;
44270;SDS011;29963;44.594;11.368;2024-01-06T17:32:28;17.38;;;15.68;;
44270;SDS011;29963;44.594;11.368;2024-01-06T17:34:55;18.27;;;16.42;;
44270;SDS011;29963;44.594;11.368;2024-01-06T17:37:20;16.52;;;14.93;;
44270;SDS011;29963;44.594;11.368;2024-01-06T17:39:46;17.85;;;16.08;;
44270;SDS011;29963;44.594;11.368;2024-01-06T17:42:12;18.25;;;16.35;;
44270;SDS011;29963;44.594;11.368;2024-01-06T17:44:37;18.73;;;16.80;;
44270;SDS011;29963;44.594;11.368;2024-01-06T17:47:08;17.92;;;16.17;;
44270;SDS011;29963;44.594;11.368;2024-01-06T17:49:34;17.80;;;16.10;;
44270;SDS011;29963;44.594;11.368;2024-01-06T17:51:59;20.42;;;18.23;;
44270;SDS011;29963;44.594;11.368;2024-01-06T17:54:25;19.90;;;17.83;;
44270;SDS011;29963;44.594;11.368;2024-01-06T17:56:51;19.90;;;16.88;;
44270;SDS011;29963;44.594;11.368;2024-01-06T17:59:16;20.45;;;18.30;;
44270;SDS011;29963;44.594;11.368;2024-01-06T18:01:42;19.83;;;17.67;;
44270;SDS011;29963;44.594;11.368;2024-01-06T18:04:07;21.30;;;18.80;;
44270;SDS011;29963;44.594;11.368;2024-01-06T18:06:33;20.42;;;18.23;;
44270;SDS011;29963;44.594;11.368;2024-01-06T18:08:58;18.58;;;16.60;;
44270;SDS011;29963;44.594;11.368;2024-01-06T18:11:25;20.50;;;18.50;;
44270;SDS011;29963;44.594;11.368;2024-01-06T18:13:51;21.85;;;18.75;;
44270;SDS011;29963;44.594;11.368;2024-01-06T18:16:17;19.42;;;17.42;;
44270;SDS011;29963;44.594;11.368;2024-01-06T18:18:42;18.52;;;16.73;;
44270;SDS011;29963;44.594;11.368;2024-01-06T18:21:11;18.33;;;16.42;;
44270;SDS011;29963;44.594;11.368;2024-01-06T18:23:36;18.67;;;16.77;;
44270;SDS011;29963;44.594;11.368;2024-01-06T18:26:02;20.48;;;17.85;;
44270;SDS011;29963;44.594;11.368;2024-01-06T18:28:28;21.23;;;18.80;;
44270;SDS011;29963;44.594;11.368;2024-01-06T18:30:53;19.52;;;17.50;;
44270;SDS011;29963;44.594;11.368;2024-01-06T18:33:19;21.08;;;18.80;;
44270;SDS011;29963;44.594;11.368;2024-01-06T18:35:45;23.02;;;19.77;;
44270;SDS011;29963;44.594;11.368;2024-01-06T18:38:11;20.27;;;18.17;;
44270;SDS011;29963;44.594;11.368;2024-01-06T18:40:36;21.48;;;18.90;;
44270;SDS011;29963;44.594;11.368;2024-01-06T18:43:02;22.80;;;19.40;;
44270;SDS011;29963;44.594;11.368;2024-01-06T18:45:28;23.30;;;20.70;;
44270;SDS011;29963;44.594;11.368;2024-01-06T18:47:53;21.70;;;19.40;;
44270;SDS011;29963;44.594;11.368;2024-01-06T18:50:19;24.30;;;21.00;;
44270;SDS011;29963;44.594;11.368;2024-01-06T18:52:47;24.73;;;20.25;;
44270;SDS011;29963;44.594;11.368;2024-01-06T18:55:14;24.58;;;20.90;;
44270;SDS011;29963;44.594;11.368;2024-01-06T18:57:40;22.65;;;20.30;;
44270;SDS011;29963;44.594;11.368;2024-01-06T19:00:06;23.02;;;19.70;;
44270;SDS011;29963;44.594;11.368;2024-01-06T19:02:33;21.98;;;19.67;;
44270;SDS011;29963;44.594;11.368;2024-01-06T19:04:59;22.92;;;20.45;;
44270;SDS011;29963;44.594;11.368;2024-01-06T19:07:25;21.90;;;19.63;;
44270;SDS011;29963;44.594;11.368;2024-01-06T19:09:50;23.90;;;20.90;;
44270;SDS011;29963;44.594;11.368;2024-01-06T19:12:16;22.40;;;19.80;;
44270;SDS011;29963;44.594;11.368;2024-01-06T19:14:41;21.80;;;19.48;;
44270;SDS011;29963;44.594;11.368;2024-01-06T19:17:08;23.05;;;20.23;;
44270;SDS011;29963;44.594;11.368;2024-01-06T19:19:34;22.35;;;19.90;;
44270;SDS011;29963;44.594;11.368;2024-01-06T19:22:03;24.15;;;20.45;;
44270;SDS011;29963;44.594;11.368;2024-01-06T19:24:29;25.60;;;20.67;;
44270;SDS011;29963;44.594;11.368;2024-01-06T19:26:55;23.58;;;20.83;;
44270;SDS011;29963;44.594;11.368;2024-01-06T19:29:20;23.95;;;20.70;;
44270;SDS011;29963;44.594;11.368;2024-01-06T19:31:47;21.85;;;19.50;;
44270;SDS011;29963;44.594;11.368;2024-01-06T19:34:12;21.52;;;18.70;;
44270;SDS011;29963;44.594;11.368;2024-01-06T19:36:38;24.15;;;21.65;;
44270;SDS011;29963;44.594;11.368;2024-01-06T19:39:03;23.52;;;20.33;;
44270;SDS011;29963;44.594;11.368;2024-01-06T19:41:29;25.30;;;21.50;;
44270;SDS011;29963;44.594;11.368;2024-01-06T19:43:55;23.98;;;20.17;;
44270;SDS011;29963;44.594;11.368;2024-01-06T19:46:25;26.10;;;21.60;;
44270;SDS011;29963;44.594;11.368;2024-01-06T19:48:50;24.80;;;21.38;;
44270;SDS011;29963;44.594;11.368;2024-01-06T19:51:16;23.35;;;19.55;;
44270;SDS011;29963;44.594;11.368;2024-01-06T19:53:41;26.63;;;21.45;;
44270;SDS011;29963;44.594;11.368;2024-01-06T19:56:07;23.65;;;20.13;;
44270;SDS011;29963;44.594;11.368;2024-01-06T19:58:38;24.77;;;20.95;;
44270;SDS011;29963;44.594;11.368;2024-01-06T20:01:03;23.48;;;21.00;;
44270;SDS011;29963;44.594;11.368;2024-01-06T20:03:30;22.15;;;19.75;;
44270;SDS011;29963;44.594;11.368;2024-01-06T20:05:55;21.50;;;19.30;;
44270;SDS011;29963;44.594;11.368;2024-01-06T20:08:24;21.33;;;19.05;;
44270;SDS011;29963;44.594;11.368;2024-01-06T20:10:49;24.70;;;20.48;;
44270;SDS011;29963;44.594;11.368;2024-01-06T20:13:15;26.17;;;21.40;;
44270;SDS011;29963;44.594;11.368;2024-01-06T20:15:40;23.75;;;21.20;;
44270;SDS011;29963;44.594;11.368;2024-01-06T20:18:10;24.60;;;19.85;;
44270;SDS011;29963;44.594;11.368;2024-01-06T20:20:36;21.23;;;18.77;;
44270;SDS011;29963;44.594;11.368;2024-01-06T20:23:02;25.40;;;21.77;;
44270;SDS011;29963;44.594;11.368;2024-01-06T20:25:28;25.05;;;21.05;;
44270;SDS011;29963;44.594;11.368;2024-01-06T20:27:53;22.17;;;19.10;;
44270;SDS011;29963;44.594;11.368;2024-01-06T20:30:25;23.10;;;20.15;;
44270;SDS011;29963;44.594;11.368;2024-01-06T20:32:51;20.55;;;18.38;;
44270;SDS011;29963;44.594;11.368;2024-01-06T20:35:16;20.98;;;18.63;;
44270;SDS011;29963;44.594;11.368;2024-01-06T20:37:43;22.50;;;19.38;;
44270;SDS011;29963;44.594;11.368;2024-01-06T20:40:09;22.17;;;19.70;;
44270;SDS011;29963;44.594;11.368;2024-01-06T20:42:35;19.13;;;17.05;;
44270;SDS011;29963;44.594;11.368;2024-01-06T20:45:00;19.13;;;17.15;;
44270;SDS011;29963;44.594;11.368;2024-01-06T20:47:27;20.25;;;18.13;;
44270;SDS011;29963;44.594;11.368;2024-01-06T20:49:52;18.50;;;16.33;;
44270;SDS011;29963;44.594;11.368;2024-01-06T20:52:18;18.77;;;16.85;;
44270;SDS011;29963;44.594;11.368;2024-01-06T20:54:44;19.83;;;17.73;;
44270;SDS011;29963;44.594;11.368;2024-01-06T20:57:09;19.92;;;17.83;;
44270;SDS011;29963;44.594;11.368;2024-01-06T20:59:35;19.02;;;17.05;;
44270;SDS011;29963;44.594;11.368;2024-01-06T21:02:00;18.80;;;16.85;;
44270;SDS011;29963;44.594;11.368;2024-01-06T21:04:27;20.02;;;17.90;;
44270;SDS011;29963;44.594;11.368;2024-01-06T21:06:52;20.58;;;18.05;;
44270;SDS011;29963;44.594;11.368;2024-01-06T21:09:18;20.90;;;17.73;;
44270;SDS011;29963;44.594;11.368;2024-01-06T21:11:46;19.02;;;17.13;;
44270;SDS011;29963;44.594;11.368;2024-01-06T21:14:11;18.55;;;16.70;;
44270;SDS011;29963;44.594;11.368;2024-01-06T21:16:40;17.42;;;15.73;;
44270;SDS011;29963;44.594;11.368;2024-01-06T21:19:06;17.17;;;15.38;;
44270;SDS011;29963;44.594;11.368;2024-01-06T21:21:32;19.15;;;17.15;;
44270;SDS011;29963;44.594;11.368;2024-01-06T21:23:58;19.88;;;16.30;;
44270;SDS011;29963;44.594;11.368;2024-01-06T21:26:25;20.10;;;18.00;;
44270;SDS011;29963;44.594;11.368;2024-01-06T21:28:51;18.95;;;17.10;;
44270;SDS011;29963;44.594;11.368;2024-01-06T21:31:16;19.75;;;17.75;;
44270;SDS011;29963;44.594;11.368;2024-01-06T21:33:44;18.40;;;16.45;;
44270;SDS011;29963;44.594;11.368;2024-01-06T21:36:10;18.70;;;16.90;;